sensor_id;sensor_type;location;lat;lon;timestamp;P1;durP1;ratioP1;P2;durP2;ratioP2
35056;SDS011;21241;51.828;19.574;2023-03-16T00:00:48;22.00;;;19.90;;
35056;SDS011;21241;51.828;19.574;2023-03-16T00:03:19;22.60;;;20.40;;
35056;SDS011;21241;51.828;19.574;2023-03-16T00:05:51;23.70;;;21.30;;
35056;SDS011;21241;51.828;19.574;2023-03-16T00:08:19;22.80;;;20.50;;
35056;SDS011;21241;51.828;19.574;2023-03-16T00:10:47;22.70;;;20.20;;
35056;SDS011;21241;51.828;19.574;2023-03-16T00:13:15;22.70;;;20.50;;
35056;SDS011;21241;51.828;19.574;2023-03-16T00:15:50;23.40;;;20.90;;
35056;SDS011;21241;51.828;19.574;2023-03-16T00:18:19;23.80;;;21.30;;
35056;SDS011;21241;51.828;19.574;2023-03-16T00:20:50;22.30;;;19.40;;
35056;SDS011;21241;51.828;19.574;2023-03-16T00:23:23;25.20;;;22.60;;
35056;SDS011;21241;51.828;19.574;2023-03-16T00:25:55;25.70;;;23.10;;
35056;SDS011;21241;51.828;19.574;2023-03-16T00:28:25;22.10;;;19.90;;
35056;SDS011;21241;51.828;19.574;2023-03-16T00:30:53;26.50;;;23.80;;
35056;SDS011;21241;51.828;19.574;2023-03-16T00:33:25;22.70;;;20.30;;
35056;SDS011;21241;51.828;19.574;2023-03-16T00:35:53;22.10;;;19.80;;
35056;SDS011;21241;51.828;19.574;2023-03-16T00:38:30;22.40;;;19.50;;
35056;SDS011;21241;51.828;19.574;2023-03-16T00:41:01;22.80;;;18.50;;
35056;SDS011;21241;51.828;19.574;2023-03-16T00:43:31;19.80;;;17.80;;
35056;SDS011;21241;51.828;19.574;2023-03-16T00:46:08;21.00;;;18.60;;
35056;SDS011;21241;51.828;19.574;2023-03-16T00:48:39;20.30;;;18.00;;
35056;SDS011;21241;51.828;19.574;2023-03-16T00:51:11;21.90;;;18.90;;
35056;SDS011;21241;51.828;19.574;2023-03-16T00:53:42;19.80;;;17.80;;
35056;SDS011;21241;51.828;19.574;2023-03-16T00:56:10;20.90;;;18.70;;
35056;SDS011;21241;51.828;19.574;2023-03-16T00:58:39;22.10;;;19.10;;
35056;SDS011;21241;51.828;19.574;2023-03-16T01:01:12;20.60;;;18.40;;
35056;SDS011;21241;51.828;19.574;2023-03-16T01:03:42;23.20;;;18.00;;
35056;SDS011;21241;51.828;19.574;2023-03-16T01:06:12;19.10;;;17.10;;
35056;SDS011;21241;51.828;19.574;2023-03-16T01:08:42;19.70;;;17.70;;
35056;SDS011;21241;51.828;19.574;2023-03-16T01:11:17;19.10;;;17.10;;
35056;SDS011;21241;51.828;19.574;2023-03-16T01:13:47;19.80;;;17.50;;
35056;SDS011;21241;51.828;19.574;2023-03-16T01:16:16;18.70;;;16.80;;
35056;SDS011;21241;51.828;19.574;2023-03-16T01:18:45;18.10;;;16.20;;
35056;SDS011;21241;51.828;19.574;2023-03-16T01:21:14;18.40;;;16.50;;
35056;SDS011;21241;51.828;19.574;2023-03-16T01:23:42;18.00;;;16.10;;
35056;SDS011;21241;51.828;19.574;2023-03-16T01:26:11;18.20;;;16.30;;
35056;SDS011;21241;51.828;19.574;2023-03-16T01:28:41;17.60;;;15.80;;
35056;SDS011;21241;51.828;19.574;2023-03-16T01:31:11;17.70;;;16.00;;
35056;SDS011;21241;51.828;19.574;2023-03-16T01:33:41;18.40;;;16.00;;
35056;SDS011;21241;51.828;19.574;2023-03-16T01:36:16;17.90;;;16.20;;
35056;SDS011;21241;51.828;19.574;2023-03-16T01:38:55;17.40;;;15.60;;
35056;SDS011;21241;51.828;19.574;2023-03-16T01:41:25;17.10;;;15.00;;
35056;SDS011;21241;51.828;19.574;2023-03-16T01:43:53;17.70;;;15.80;;
35056;SDS011;21241;51.828;19.574;2023-03-16T01:46:26;18.30;;;15.90;;
35056;SDS011;21241;51.828;19.574;2023-03-16T01:51:53;18.80;;;16.70;;
35056;SDS011;21241;51.828;19.574;2023-03-16T01:54:46;19.60;;;16.20;;
35056;SDS011;21241;51.828;19.574;2023-03-16T01:57:20;18.20;;;15.80;;
35056;SDS011;21241;51.828;19.574;2023-03-16T01:59:51;19.30;;;16.10;;
35056;SDS011;21241;51.828;19.574;2023-03-16T02:02:23;19.00;;;17.00;;
35056;SDS011;21241;51.828;19.574;2023-03-16T02:05:03;18.50;;;16.50;;
35056;SDS011;21241;51.828;19.574;2023-03-16T02:07:41;17.90;;;15.40;;
35056;SDS011;21241;51.828;19.574;2023-03-16T02:10:12;17.90;;;16.10;;
35056;SDS011;21241;51.828;19.574;2023-03-16T02:12:41;18.10;;;16.20;;
35056;SDS011;21241;51.828;19.574;2023-03-16T02:15:09;17.80;;;16.10;;
35056;SDS011;21241;51.828;19.574;2023-03-16T02:17:40;17.50;;;15.70;;
35056;SDS011;21241;51.828;19.574;2023-03-16T02:20:14;16.20;;;14.50;;
35056;SDS011;21241;51.828;19.574;2023-03-16T02:23:10;16.80;;;15.00;;
35056;SDS011;21241;51.828;19.574;2023-03-16T02:31:39;17.30;;;15.60;;
35056;SDS011;21241;51.828;19.574;2023-03-16T02:34:07;17.50;;;15.70;;
35056;SDS011;21241;51.828;19.574;2023-03-16T02:36:36;18.30;;;16.50;;
35056;SDS011;21241;51.828;19.574;2023-03-16T02:39:05;19.00;;;16.80;;
35056;SDS011;21241;51.828;19.574;2023-03-16T02:41:41;17.00;;;15.10;;
35056;SDS011;21241;51.828;19.574;2023-03-16T02:46:43;18.30;;;16.50;;
35056;SDS011;21241;51.828;19.574;2023-03-16T02:49:26;18.50;;;16.80;;
35056;SDS011;21241;51.828;19.574;2023-03-16T02:51:59;18.60;;;16.70;;
35056;SDS011;21241;51.828;19.574;2023-03-16T02:54:27;19.50;;;17.50;;
35056;SDS011;21241;51.828;19.574;2023-03-16T02:56:55;18.10;;;16.50;;
35056;SDS011;21241;51.828;19.574;2023-03-16T02:59:24;18.70;;;17.00;;
35056;SDS011;21241;51.828;19.574;2023-03-16T03:01:51;19.60;;;17.50;;
35056;SDS011;21241;51.828;19.574;2023-03-16T03:04:19;19.60;;;16.90;;
35056;SDS011;21241;51.828;19.574;2023-03-16T03:06:50;20.00;;;18.00;;
35056;SDS011;21241;51.828;19.574;2023-03-16T03:09:18;20.60;;;18.50;;
35056;SDS011;21241;51.828;19.574;2023-03-16T03:11:49;19.30;;;17.40;;
35056;SDS011;21241;51.828;19.574;2023-03-16T03:14:17;20.70;;;18.40;;
35056;SDS011;21241;51.828;19.574;2023-03-16T03:16:45;19.60;;;17.50;;
35056;SDS011;21241;51.828;19.574;2023-03-16T03:19:14;20.00;;;18.20;;
35056;SDS011;21241;51.828;19.574;2023-03-16T03:21:42;21.20;;;19.10;;
35056;SDS011;21241;51.828;19.574;2023-03-16T03:24:09;20.60;;;18.40;;
35056;SDS011;21241;51.828;19.574;2023-03-16T03:26:37;21.20;;;18.60;;
35056;SDS011;21241;51.828;19.574;2023-03-16T03:29:07;20.50;;;18.40;;
35056;SDS011;21241;51.828;19.574;2023-03-16T03:31:35;20.30;;;18.20;;
35056;SDS011;21241;51.828;19.574;2023-03-16T03:34:02;19.30;;;16.90;;
35056;SDS011;21241;51.828;19.574;2023-03-16T03:36:34;20.80;;;18.70;;
35056;SDS011;21241;51.828;19.574;2023-03-16T03:39:03;19.80;;;18.00;;
35056;SDS011;21241;51.828;19.574;2023-03-16T03:41:32;19.90;;;17.90;;
35056;SDS011;21241;51.828;19.574;2023-03-16T03:44:01;18.10;;;16.30;;
35056;SDS011;21241;51.828;19.574;2023-03-16T03:46:29;18.80;;;16.90;;
35056;SDS011;21241;51.828;19.574;2023-03-16T03:48:57;18.80;;;17.00;;
35056;SDS011;21241;51.828;19.574;2023-03-16T03:51:31;19.50;;;17.60;;
35056;SDS011;21241;51.828;19.574;2023-03-16T03:54:06;19.50;;;17.20;;
35056;SDS011;21241;51.828;19.574;2023-03-16T03:56:47;21.30;;;18.20;;
35056;SDS011;21241;51.828;19.574;2023-03-16T03:59:16;20.30;;;18.20;;
35056;SDS011;21241;51.828;19.574;2023-03-16T04:02:08;21.30;;;19.20;;
35056;SDS011;21241;51.828;19.574;2023-03-16T04:04:40;21.70;;;19.30;;
35056;SDS011;21241;51.828;19.574;2023-03-16T04:07:10;22.10;;;19.80;;
35056;SDS011;21241;51.828;19.574;2023-03-16T04:09:38;21.80;;;19.50;;
35056;SDS011;21241;51.828;19.574;2023-03-16T04:12:06;22.10;;;19.10;;
35056;SDS011;21241;51.828;19.574;2023-03-16T04:14:34;21.80;;;19.50;;
35056;SDS011;21241;51.828;19.574;2023-03-16T04:17:04;20.30;;;18.30;;
35056;SDS011;21241;51.828;19.574;2023-03-16T04:19:33;20.10;;;17.90;;
35056;SDS011;21241;51.828;19.574;2023-03-16T04:22:02;21.70;;;18.50;;
35056;SDS011;21241;51.828;19.574;2023-03-16T04:24:30;22.70;;;20.60;;
35056;SDS011;21241;51.828;19.574;2023-03-16T04:27:00;21.90;;;19.60;;
35056;SDS011;21241;51.828;19.574;2023-03-16T04:29:29;22.60;;;20.50;;
35056;SDS011;21241;51.828;19.574;2023-03-16T04:31:58;22.70;;;20.50;;
35056;SDS011;21241;51.828;19.574;2023-03-16T04:34:26;24.40;;;22.00;;
35056;SDS011;21241;51.828;19.574;2023-03-16T04:36:56;24.70;;;22.20;;
35056;SDS011;21241;51.828;19.574;2023-03-16T04:39:24;23.60;;;21.30;;
35056;SDS011;21241;51.828;19.574;2023-03-16T04:41:53;24.40;;;22.10;;
35056;SDS011;21241;51.828;19.574;2023-03-16T04:44:25;23.40;;;21.30;;
35056;SDS011;21241;51.828;19.574;2023-03-16T04:46:53;25.90;;;23.40;;
35056;SDS011;21241;51.828;19.574;2023-03-16T04:49:21;25.90;;;23.30;;
35056;SDS011;21241;51.828;19.574;2023-03-16T04:51:49;26.50;;;24.00;;
35056;SDS011;21241;51.828;19.574;2023-03-16T04:54:18;26.50;;;23.90;;
35056;SDS011;21241;51.828;19.574;2023-03-16T04:56:47;27.60;;;24.70;;
35056;SDS011;21241;51.828;19.574;2023-03-16T04:59:35;26.50;;;23.90;;
35056;SDS011;21241;51.828;19.574;2023-03-16T05:02:26;27.10;;;24.50;;
35056;SDS011;21241;51.828;19.574;2023-03-16T05:04:57;29.00;;;26.10;;
35056;SDS011;21241;51.828;19.574;2023-03-16T05:07:25;31.10;;;28.20;;
35056;SDS011;21241;51.828;19.574;2023-03-16T05:09:54;31.40;;;28.50;;
35056;SDS011;21241;51.828;19.574;2023-03-16T05:12:22;33.40;;;29.90;;
35056;SDS011;21241;51.828;19.574;2023-03-16T05:14:53;32.70;;;29.50;;
35056;SDS011;21241;51.828;19.574;2023-03-16T05:17:31;33.20;;;29.90;;
35056;SDS011;21241;51.828;19.574;2023-03-16T05:20:00;33.20;;;30.20;;
35056;SDS011;21241;51.828;19.574;2023-03-16T05:22:28;34.60;;;31.30;;
35056;SDS011;21241;51.828;19.574;2023-03-16T05:25:18;33.10;;;29.90;;
35056;SDS011;21241;51.828;19.574;2023-03-16T05:27:50;34.40;;;31.10;;
35056;SDS011;21241;51.828;19.574;2023-03-16T05:30:27;35.90;;;32.50;;
35056;SDS011;21241;51.828;19.574;2023-03-16T05:32:55;35.10;;;31.70;;
35056;SDS011;21241;51.828;19.574;2023-03-16T05:35:25;36.90;;;33.40;;
35056;SDS011;21241;51.828;19.574;2023-03-16T05:37:57;36.60;;;33.20;;
35056;SDS011;21241;51.828;19.574;2023-03-16T05:40:25;36.10;;;33.00;;
35056;SDS011;21241;51.828;19.574;2023-03-16T05:43:03;37.60;;;34.10;;
35056;SDS011;21241;51.828;19.574;2023-03-16T05:45:33;37.40;;;33.90;;
35056;SDS011;21241;51.828;19.574;2023-03-16T05:48:11;39.70;;;35.90;;
35056;SDS011;21241;51.828;19.574;2023-03-16T05:50:43;38.40;;;34.60;;
35056;SDS011;21241;51.828;19.574;2023-03-16T05:53:12;36.60;;;33.20;;
35056;SDS011;21241;51.828;19.574;2023-03-16T05:55:40;35.10;;;31.80;;
35056;SDS011;21241;51.828;19.574;2023-03-16T05:58:10;37.80;;;34.30;;
35056;SDS011;21241;51.828;19.574;2023-03-16T06:00:39;39.40;;;35.60;;
35056;SDS011;21241;51.828;19.574;2023-03-16T06:03:15;38.50;;;34.90;;
35056;SDS011;21241;51.828;19.574;2023-03-16T06:05:44;37.40;;;34.00;;
35056;SDS011;21241;51.828;19.574;2023-03-16T06:08:11;39.80;;;36.00;;
35056;SDS011;21241;51.828;19.574;2023-03-16T06:10:41;37.70;;;34.10;;
35056;SDS011;21241;51.828;19.574;2023-03-16T06:13:09;39.00;;;35.40;;
35056;SDS011;21241;51.828;19.574;2023-03-16T06:15:45;38.80;;;35.10;;
35056;SDS011;21241;51.828;19.574;2023-03-16T06:18:13;38.10;;;34.50;;
35056;SDS011;21241;51.828;19.574;2023-03-16T06:20:42;39.20;;;35.60;;
35056;SDS011;21241;51.828;19.574;2023-03-16T06:23:10;38.20;;;34.60;;
35056;SDS011;21241;51.828;19.574;2023-03-16T06:25:38;36.60;;;33.20;;
35056;SDS011;21241;51.828;19.574;2023-03-16T06:28:08;36.70;;;33.30;;
35056;SDS011;21241;51.828;19.574;2023-03-16T06:30:35;36.60;;;33.20;;
35056;SDS011;21241;51.828;19.574;2023-03-16T06:33:03;35.70;;;32.30;;
35056;SDS011;21241;51.828;19.574;2023-03-16T06:35:31;34.40;;;30.90;;
35056;SDS011;21241;51.828;19.574;2023-03-16T06:38:11;34.30;;;31.20;;
35056;SDS011;21241;51.828;19.574;2023-03-16T06:40:57;34.00;;;30.90;;
35056;SDS011;21241;51.828;19.574;2023-03-16T06:43:25;33.10;;;30.10;;
35056;SDS011;21241;51.828;19.574;2023-03-16T06:45:53;33.00;;;30.10;;
35056;SDS011;21241;51.828;19.574;2023-03-16T06:48:22;31.20;;;28.30;;
35056;SDS011;21241;51.828;19.574;2023-03-16T06:50:50;31.60;;;28.60;;
35056;SDS011;21241;51.828;19.574;2023-03-16T06:53:23;29.00;;;26.00;;
35056;SDS011;21241;51.828;19.574;2023-03-16T06:55:52;28.50;;;25.80;;
35056;SDS011;21241;51.828;19.574;2023-03-16T06:58:20;29.30;;;26.50;;
35056;SDS011;21241;51.828;19.574;2023-03-16T07:00:48;24.90;;;22.50;;
35056;SDS011;21241;51.828;19.574;2023-03-16T07:03:16;25.90;;;23.50;;
35056;SDS011;21241;51.828;19.574;2023-03-16T07:05:50;23.20;;;21.00;;
35056;SDS011;21241;51.828;19.574;2023-03-16T07:08:18;24.90;;;22.50;;
35056;SDS011;21241;51.828;19.574;2023-03-16T07:10:49;27.10;;;24.70;;
35056;SDS011;21241;51.828;19.574;2023-03-16T07:13:18;23.90;;;21.60;;
35056;SDS011;21241;51.828;19.574;2023-03-16T07:15:50;25.30;;;22.90;;
35056;SDS011;21241;51.828;19.574;2023-03-16T07:18:20;25.80;;;23.50;;
35056;SDS011;21241;51.828;19.574;2023-03-16T07:20:52;23.20;;;21.20;;
35056;SDS011;21241;51.828;19.574;2023-03-16T07:23:23;24.40;;;22.10;;
35056;SDS011;21241;51.828;19.574;2023-03-16T07:25:53;24.30;;;22.10;;
35056;SDS011;21241;51.828;19.574;2023-03-16T07:28:23;25.40;;;22.90;;
35056;SDS011;21241;51.828;19.574;2023-03-16T07:30:52;23.00;;;20.90;;
35056;SDS011;21241;51.828;19.574;2023-03-16T07:33:50;25.00;;;22.60;;
35056;SDS011;21241;51.828;19.574;2023-03-16T07:36:30;23.10;;;21.10;;
35056;SDS011;21241;51.828;19.574;2023-03-16T07:39:01;22.40;;;20.40;;
35056;SDS011;21241;51.828;19.574;2023-03-16T07:41:31;22.50;;;20.30;;
35056;SDS011;21241;51.828;19.574;2023-03-16T07:44:14;25.30;;;22.90;;
35056;SDS011;21241;51.828;19.574;2023-03-16T07:46:44;19.80;;;18.00;;
35056;SDS011;21241;51.828;19.574;2023-03-16T07:49:13;19.80;;;18.00;;
35056;SDS011;21241;51.828;19.574;2023-03-16T07:51:44;20.60;;;18.70;;
35056;SDS011;21241;51.828;19.574;2023-03-16T07:54:17;21.70;;;19.80;;
35056;SDS011;21241;51.828;19.574;2023-03-16T07:56:45;21.60;;;19.30;;
35056;SDS011;21241;51.828;19.574;2023-03-16T07:59:29;24.20;;;22.10;;
35056;SDS011;21241;51.828;19.574;2023-03-16T08:02:00;24.10;;;22.00;;
35056;SDS011;21241;51.828;19.574;2023-03-16T08:04:29;26.00;;;23.50;;
35056;SDS011;21241;51.828;19.574;2023-03-16T08:07:02;23.80;;;21.50;;
35056;SDS011;21241;51.828;19.574;2023-03-16T08:09:43;22.20;;;20.20;;
35056;SDS011;21241;51.828;19.574;2023-03-16T08:12:14;20.70;;;18.80;;
35056;SDS011;21241;51.828;19.574;2023-03-16T08:14:45;22.40;;;20.40;;
35056;SDS011;21241;51.828;19.574;2023-03-16T08:17:35;18.40;;;16.80;;
35056;SDS011;21241;51.828;19.574;2023-03-16T08:20:05;16.10;;;14.50;;
35056;SDS011;21241;51.828;19.574;2023-03-16T08:22:40;17.10;;;15.40;;
35056;SDS011;21241;51.828;19.574;2023-03-16T08:25:09;15.50;;;13.80;;
35056;SDS011;21241;51.828;19.574;2023-03-16T08:27:38;15.20;;;13.60;;
35056;SDS011;21241;51.828;19.574;2023-03-16T08:30:08;15.60;;;14.00;;
35056;SDS011;21241;51.828;19.574;2023-03-16T08:32:43;14.10;;;12.80;;
35056;SDS011;21241;51.828;19.574;2023-03-16T08:35:12;15.90;;;14.30;;
35056;SDS011;21241;51.828;19.574;2023-03-16T08:37:42;14.00;;;12.60;;
35056;SDS011;21241;51.828;19.574;2023-03-16T08:40:12;13.40;;;11.90;;
35056;SDS011;21241;51.828;19.574;2023-03-16T08:42:44;13.50;;;11.30;;
35056;SDS011;21241;51.828;19.574;2023-03-16T08:45:15;11.20;;;10.00;;
35056;SDS011;21241;51.828;19.574;2023-03-16T08:47:44;10.30;;;9.30;;
35056;SDS011;21241;51.828;19.574;2023-03-16T08:50:13;11.50;;;10.30;;
35056;SDS011;21241;51.828;19.574;2023-03-16T08:52:42;11.70;;;9.50;;
35056;SDS011;21241;51.828;19.574;2023-03-16T08:55:13;13.50;;;10.60;;
35056;SDS011;21241;51.828;19.574;2023-03-16T08:57:42;11.90;;;10.60;;
35056;SDS011;21241;51.828;19.574;2023-03-16T09:00:15;10.80;;;8.10;;
35056;SDS011;21241;51.828;19.574;2023-03-16T09:02:44;11.90;;;8.50;;
35056;SDS011;21241;51.828;19.574;2023-03-16T09:05:18;11.70;;;9.00;;
35056;SDS011;21241;51.828;19.574;2023-03-16T09:07:47;11.30;;;9.40;;
35056;SDS011;21241;51.828;19.574;2023-03-16T09:10:17;12.30;;;10.90;;
35056;SDS011;21241;51.828;19.574;2023-03-16T09:12:46;12.20;;;9.70;;
35056;SDS011;21241;51.828;19.574;2023-03-16T09:15:17;12.40;;;9.40;;
35056;SDS011;21241;51.828;19.574;2023-03-16T09:17:47;11.40;;;8.70;;
35056;SDS011;21241;51.828;19.574;2023-03-16T09:20:17;13.60;;;10.60;;
35056;SDS011;21241;51.828;19.574;2023-03-16T09:22:53;11.50;;;9.70;;
35056;SDS011;21241;51.828;19.574;2023-03-16T09:25:22;13.30;;;11.30;;
35056;SDS011;21241;51.828;19.574;2023-03-16T09:27:57;14.00;;;12.70;;
35056;SDS011;21241;51.828;19.574;2023-03-16T09:30:27;13.20;;;11.80;;
35056;SDS011;21241;51.828;19.574;2023-03-16T09:32:57;11.10;;;8.70;;
35056;SDS011;21241;51.828;19.574;2023-03-16T09:35:26;10.90;;;8.40;;
35056;SDS011;21241;51.828;19.574;2023-03-16T09:37:56;9.20;;;7.40;;
35056;SDS011;21241;51.828;19.574;2023-03-16T09:40:34;9.80;;;8.30;;
35056;SDS011;21241;51.828;19.574;2023-03-16T09:43:25;11.80;;;9.30;;
35056;SDS011;21241;51.828;19.574;2023-03-16T09:45:59;12.50;;;9.50;;
35056;SDS011;21241;51.828;19.574;2023-03-16T09:48:37;12.70;;;9.50;;
35056;SDS011;21241;51.828;19.574;2023-03-16T09:51:11;11.80;;;9.70;;
35056;SDS011;21241;51.828;19.574;2023-03-16T09:53:47;13.30;;;10.00;;
35056;SDS011;21241;51.828;19.574;2023-03-16T09:56:27;14.00;;;12.00;;
35056;SDS011;21241;51.828;19.574;2023-03-16T09:58:58;13.20;;;10.80;;
35056;SDS011;21241;51.828;19.574;2023-03-16T10:01:42;13.40;;;11.40;;
35056;SDS011;21241;51.828;19.574;2023-03-16T10:04:26;13.60;;;10.90;;
35056;SDS011;21241;51.828;19.574;2023-03-16T10:10:05;9.10;;;7.50;;
35056;SDS011;21241;51.828;19.574;2023-03-16T10:13:04;11.00;;;6.90;;
35056;SDS011;21241;51.828;19.574;2023-03-16T10:15:47;9.40;;;6.80;;
35056;SDS011;21241;51.828;19.574;2023-03-16T10:18:22;10.70;;;8.20;;
35056;SDS011;21241;51.828;19.574;2023-03-16T10:20:54;13.20;;;9.20;;
35056;SDS011;21241;51.828;19.574;2023-03-16T10:23:24;10.90;;;8.90;;
35056;SDS011;21241;51.828;19.574;2023-03-16T10:25:54;11.40;;;8.40;;
35056;SDS011;21241;51.828;19.574;2023-03-16T10:28:35;10.40;;;7.80;;
35056;SDS011;21241;51.828;19.574;2023-03-16T10:31:07;10.90;;;7.90;;
35056;SDS011;21241;51.828;19.574;2023-03-16T10:33:37;9.80;;;8.30;;
35056;SDS011;21241;51.828;19.574;2023-03-16T10:38:51;10.00;;;6.20;;
35056;SDS011;21241;51.828;19.574;2023-03-16T10:41:28;9.50;;;6.40;;
35056;SDS011;21241;51.828;19.574;2023-03-16T10:44:08;9.00;;;6.00;;
35056;SDS011;21241;51.828;19.574;2023-03-16T10:46:39;9.80;;;5.80;;
35056;SDS011;21241;51.828;19.574;2023-03-16T10:49:45;7.50;;;5.40;;
35056;SDS011;21241;51.828;19.574;2023-03-16T10:52:13;8.50;;;5.80;;
35056;SDS011;21241;51.828;19.574;2023-03-16T10:54:48;11.20;;;6.60;;
35056;SDS011;21241;51.828;19.574;2023-03-16T10:59:48;7.40;;;6.60;;
35056;SDS011;21241;51.828;19.574;2023-03-16T11:02:20;6.30;;;4.70;;
35056;SDS011;21241;51.828;19.574;2023-03-16T11:07:50;7.40;;;4.80;;
35056;SDS011;21241;51.828;19.574;2023-03-16T11:10:29;8.50;;;5.60;;
35056;SDS011;21241;51.828;19.574;2023-03-16T11:18:35;5.80;;;4.30;;
35056;SDS011;21241;51.828;19.574;2023-03-16T11:21:12;5.90;;;4.60;;
35056;SDS011;21241;51.828;19.574;2023-03-16T11:23:46;5.40;;;4.00;;
35056;SDS011;21241;51.828;19.574;2023-03-16T11:26:25;7.20;;;4.60;;
35056;SDS011;21241;51.828;19.574;2023-03-16T11:29:01;5.60;;;4.10;;
35056;SDS011;21241;51.828;19.574;2023-03-16T11:31:59;4.30;;;2.90;;
35056;SDS011;21241;51.828;19.574;2023-03-16T11:34:31;6.00;;;3.80;;
35056;SDS011;21241;51.828;19.574;2023-03-16T11:42:28;6.30;;;3.20;;
35056;SDS011;21241;51.828;19.574;2023-03-16T11:48:14;5.20;;;2.80;;
35056;SDS011;21241;51.828;19.574;2023-03-16T11:50:52;5.30;;;2.50;;
35056;SDS011;21241;51.828;19.574;2023-03-16T11:53:51;4.70;;;2.60;;
35056;SDS011;21241;51.828;19.574;2023-03-16T11:56:44;6.00;;;2.80;;
35056;SDS011;21241;51.828;19.574;2023-03-16T11:59:32;5.00;;;3.10;;
35056;SDS011;21241;51.828;19.574;2023-03-16T12:05:47;4.90;;;2.50;;
35056;SDS011;21241;51.828;19.574;2023-03-16T12:11:26;7.00;;;2.90;;
35056;SDS011;21241;51.828;19.574;2023-03-16T12:13:58;4.40;;;3.00;;
35056;SDS011;21241;51.828;19.574;2023-03-16T12:16:52;5.50;;;3.00;;
35056;SDS011;21241;51.828;19.574;2023-03-16T12:19:38;6.00;;;2.70;;
35056;SDS011;21241;51.828;19.574;2023-03-16T12:22:14;4.80;;;2.70;;
35056;SDS011;21241;51.828;19.574;2023-03-16T12:24:57;5.60;;;2.90;;
35056;SDS011;21241;51.828;19.574;2023-03-16T12:27:32;6.60;;;3.00;;
35056;SDS011;21241;51.828;19.574;2023-03-16T12:30:41;6.30;;;3.20;;
35056;SDS011;21241;51.828;19.574;2023-03-16T12:35:53;6.80;;;3.30;;
35056;SDS011;21241;51.828;19.574;2023-03-16T12:38:30;7.30;;;3.40;;
35056;SDS011;21241;51.828;19.574;2023-03-16T12:41:13;3.40;;;3.00;;
35056;SDS011;21241;51.828;19.574;2023-03-16T12:43:51;4.30;;;2.80;;
35056;SDS011;21241;51.828;19.574;2023-03-16T12:46:30;6.80;;;3.30;;
35056;SDS011;21241;51.828;19.574;2023-03-16T12:49:17;6.50;;;3.20;;
35056;SDS011;21241;51.828;19.574;2023-03-16T12:51:47;6.20;;;3.10;;
35056;SDS011;21241;51.828;19.574;2023-03-16T12:54:31;6.40;;;4.60;;
35056;SDS011;21241;51.828;19.574;2023-03-16T12:57:01;6.80;;;3.60;;
35056;SDS011;21241;51.828;19.574;2023-03-16T12:59:40;6.10;;;3.10;;
35056;SDS011;21241;51.828;19.574;2023-03-16T13:04:57;6.40;;;4.60;;
35056;SDS011;21241;51.828;19.574;2023-03-16T13:07:29;6.20;;;4.40;;
35056;SDS011;21241;51.828;19.574;2023-03-16T13:10:06;4.40;;;2.80;;
35056;SDS011;21241;51.828;19.574;2023-03-16T13:12:37;6.00;;;2.80;;
35056;SDS011;21241;51.828;19.574;2023-03-16T13:18:02;5.90;;;2.60;;
35056;SDS011;21241;51.828;19.574;2023-03-16T13:21:17;5.60;;;3.10;;
35056;SDS011;21241;51.828;19.574;2023-03-16T13:26:49;5.10;;;2.90;;
35056;SDS011;21241;51.828;19.574;2023-03-16T13:29:21;6.00;;;3.10;;
35056;SDS011;21241;51.828;19.574;2023-03-16T13:31:51;4.70;;;3.20;;
35056;SDS011;21241;51.828;19.574;2023-03-16T13:36:56;5.40;;;3.70;;
35056;SDS011;21241;51.828;19.574;2023-03-16T13:39:26;5.00;;;3.10;;
35056;SDS011;21241;51.828;19.574;2023-03-16T13:42:31;6.00;;;3.40;;
35056;SDS011;21241;51.828;19.574;2023-03-16T13:44:54;4.60;;;3.10;;
35056;SDS011;21241;51.828;19.574;2023-03-16T13:47:24;4.10;;;2.70;;
35056;SDS011;21241;51.828;19.574;2023-03-16T13:49:56;4.60;;;2.90;;
35056;SDS011;21241;51.828;19.574;2023-03-16T13:55:00;3.90;;;2.60;;
35056;SDS011;21241;51.828;19.574;2023-03-16T13:57:31;5.50;;;3.70;;
35056;SDS011;21241;51.828;19.574;2023-03-16T14:00:05;5.00;;;3.50;;
35056;SDS011;21241;51.828;19.574;2023-03-16T14:02:45;5.40;;;4.40;;
35056;SDS011;21241;51.828;19.574;2023-03-16T14:05:36;5.40;;;3.80;;
35056;SDS011;21241;51.828;19.574;2023-03-16T14:08:11;6.20;;;3.90;;
35056;SDS011;21241;51.828;19.574;2023-03-16T14:10:41;5.10;;;4.00;;
35056;SDS011;21241;51.828;19.574;2023-03-16T14:13:25;5.50;;;4.50;;
35056;SDS011;21241;51.828;19.574;2023-03-16T14:16:12;5.30;;;4.50;;
35056;SDS011;21241;51.828;19.574;2023-03-16T14:18:41;6.50;;;4.90;;
35056;SDS011;21241;51.828;19.574;2023-03-16T14:21:15;7.50;;;5.10;;
35056;SDS011;21241;51.828;19.574;2023-03-16T14:23:52;5.40;;;4.90;;
35056;SDS011;21241;51.828;19.574;2023-03-16T14:26:23;6.70;;;4.90;;
35056;SDS011;21241;51.828;19.574;2023-03-16T14:28:56;6.50;;;4.60;;
35056;SDS011;21241;51.828;19.574;2023-03-16T14:31:37;7.20;;;4.90;;
35056;SDS011;21241;51.828;19.574;2023-03-16T14:37:06;5.40;;;4.50;;
35056;SDS011;21241;51.828;19.574;2023-03-16T14:39:35;7.40;;;4.70;;
35056;SDS011;21241;51.828;19.574;2023-03-16T14:42:04;7.80;;;5.10;;
35056;SDS011;21241;51.828;19.574;2023-03-16T14:44:38;6.80;;;5.00;;
35056;SDS011;21241;51.828;19.574;2023-03-16T14:47:06;5.00;;;4.50;;
35056;SDS011;21241;51.828;19.574;2023-03-16T14:49:35;8.10;;;4.80;;
35056;SDS011;21241;51.828;19.574;2023-03-16T14:52:10;5.60;;;4.80;;
35056;SDS011;21241;51.828;19.574;2023-03-16T14:54:43;5.70;;;5.00;;
35056;SDS011;21241;51.828;19.574;2023-03-16T14:57:12;5.60;;;4.90;;
35056;SDS011;21241;51.828;19.574;2023-03-16T14:59:43;5.50;;;4.60;;
35056;SDS011;21241;51.828;19.574;2023-03-16T15:02:17;6.40;;;4.10;;
35056;SDS011;21241;51.828;19.574;2023-03-16T15:04:54;4.60;;;4.10;;
35056;SDS011;21241;51.828;19.574;2023-03-16T15:07:24;7.20;;;4.80;;
35056;SDS011;21241;51.828;19.574;2023-03-16T15:10:00;5.60;;;5.00;;
35056;SDS011;21241;51.828;19.574;2023-03-16T15:12:32;9.50;;;7.10;;
35056;SDS011;21241;51.828;19.574;2023-03-16T15:15:04;7.10;;;4.60;;
35056;SDS011;21241;51.828;19.574;2023-03-16T15:17:42;14.10;;;11.10;;
35056;SDS011;21241;51.828;19.574;2023-03-16T15:20:12;5.10;;;4.60;;
35056;SDS011;21241;51.828;19.574;2023-03-16T15:22:42;5.80;;;4.30;;
35056;SDS011;21241;51.828;19.574;2023-03-16T15:27:51;5.30;;;4.60;;
35056;SDS011;21241;51.828;19.574;2023-03-16T15:30:23;4.80;;;3.70;;
35056;SDS011;21241;51.828;19.574;2023-03-16T15:32:52;5.20;;;3.80;;
35056;SDS011;21241;51.828;19.574;2023-03-16T15:35:20;4.90;;;3.40;;
35056;SDS011;21241;51.828;19.574;2023-03-16T15:37:47;6.00;;;4.90;;
35056;SDS011;21241;51.828;19.574;2023-03-16T15:40:16;4.20;;;3.50;;
35056;SDS011;21241;51.828;19.574;2023-03-16T15:42:46;5.50;;;4.70;;
35056;SDS011;21241;51.828;19.574;2023-03-16T15:45:15;5.50;;;5.00;;
35056;SDS011;21241;51.828;19.574;2023-03-16T15:47:48;5.40;;;3.30;;
35056;SDS011;21241;51.828;19.574;2023-03-16T15:50:19;4.20;;;3.50;;
35056;SDS011;21241;51.828;19.574;2023-03-16T15:52:52;20.70;;;19.40;;
35056;SDS011;21241;51.828;19.574;2023-03-16T15:55:37;2.70;;;2.40;;
35056;SDS011;21241;51.828;19.574;2023-03-16T15:58:12;2.50;;;2.20;;